sensor_id;sensor_type;location;lat;lon;timestamp;temperature;humidity
31725;DHT22;18306;40.960;14.836;2022-07-17T00:02:10;22.00;99.90
31725;DHT22;18306;40.960;14.836;2022-07-17T00:04:38;22.00;99.90
31725;DHT22;18306;40.960;14.836;2022-07-17T00:07:06;21.90;99.90
31725;DHT22;18306;40.960;14.836;2022-07-17T00:09:37;21.80;99.90
31725;DHT22;18306;40.960;14.836;2022-07-17T00:12:04;21.80;99.90
31725;DHT22;18306;40.960;14.836;2022-07-17T00:14:32;21.90;99.90
31725;DHT22;18306;40.960;14.836;2022-07-17T00:16:59;21.90;99.90
31725;DHT22;18306;40.960;14.836;2022-07-17T00:19:27;21.80;99.90
31725;DHT22;18306;40.960;14.836;2022-07-17T00:21:54;21.80;99.90
31725;DHT22;18306;40.960;14.836;2022-07-17T00:24:22;21.80;99.90
31725;DHT22;18306;40.960;14.836;2022-07-17T00:26:52;21.90;99.90
31725;DHT22;18306;40.960;14.836;2022-07-17T00:29:19;21.80;99.90
31725;DHT22;18306;40.960;14.836;2022-07-17T00:31:47;21.80;99.90
31725;DHT22;18306;40.960;14.836;2022-07-17T00:34:14;21.70;99.90
31725;DHT22;18306;40.960;14.836;2022-07-17T00:36:42;21.60;99.90
31725;DHT22;18306;40.960;14.836;2022-07-17T00:39:13;21.50;99.90
31725;DHT22;18306;40.960;14.836;2022-07-17T00:41:42;21.50;99.90
31725;DHT22;18306;40.960;14.836;2022-07-17T00:44:14;21.50;99.90
31725;DHT22;18306;40.960;14.836;2022-07-17T00:46:41;21.50;99.90
31725;DHT22;18306;40.960;14.836;2022-07-17T00:49:08;21.50;99.90
31725;DHT22;18306;40.960;14.836;2022-07-17T00:51:36;21.50;99.90
31725;DHT22;18306;40.960;14.836;2022-07-17T00:54:03;21.50;99.90
31725;DHT22;18306;40.960;14.836;2022-07-17T00:56:31;21.30;99.90
31725;DHT22;18306;40.960;14.836;2022-07-17T00:59:00;21.40;99.90
31725;DHT22;18306;40.960;14.836;2022-07-17T01:01:30;21.50;99.90
31725;DHT22;18306;40.960;14.836;2022-07-17T01:03:57;21.50;99.90
31725;DHT22;18306;40.960;14.836;2022-07-17T01:06:28;21.40;99.90
31725;DHT22;18306;40.960;14.836;2022-07-17T01:08:56;21.30;99.90
31725;DHT22;18306;40.960;14.836;2022-07-17T01:11:23;21.30;99.90
31725;DHT22;18306;40.960;14.836;2022-07-17T01:13:51;21.30;99.90
31725;DHT22;18306;40.960;14.836;2022-07-17T01:16:20;21.30;99.90
31725;DHT22;18306;40.960;14.836;2022-07-17T01:18:49;21.30;99.90
31725;DHT22;18306;40.960;14.836;2022-07-17T01:21:16;21.20;99.90
31725;DHT22;18306;40.960;14.836;2022-07-17T01:23:44;21.20;99.90
31725;DHT22;18306;40.960;14.836;2022-07-17T01:26:11;21.20;99.90
31725;DHT22;18306;40.960;14.836;2022-07-17T01:28:38;21.20;99.90
31725;DHT22;18306;40.960;14.836;2022-07-17T01:31:05;21.30;99.90
31725;DHT22;18306;40.960;14.836;2022-07-17T01:33:33;21.30;99.90
31725;DHT22;18306;40.960;14.836;2022-07-17T01:36:00;21.20;99.90
31725;DHT22;18306;40.960;14.836;2022-07-17T01:38:27;21.20;99.90
31725;DHT22;18306;40.960;14.836;2022-07-17T01:40:55;21.00;99.90
31725;DHT22;18306;40.960;14.836;2022-07-17T01:43:24;21.00;99.90
31725;DHT22;18306;40.960;14.836;2022-07-17T01:45:52;21.10;99.90
31725;DHT22;18306;40.960;14.836;2022-07-17T01:48:29;21.00;99.90
31725;DHT22;18306;40.960;14.836;2022-07-17T01:50:59;21.10;99.90
31725;DHT22;18306;40.960;14.836;2022-07-17T01:53:27;21.10;99.90
31725;DHT22;18306;40.960;14.836;2022-07-17T01:55:54;21.00;99.90
31725;DHT22;18306;40.960;14.836;2022-07-17T01:58:21;21.20;99.90
31725;DHT22;18306;40.960;14.836;2022-07-17T02:00:49;21.20;99.90
31725;DHT22;18306;40.960;14.836;2022-07-17T02:03:17;21.10;99.90
31725;DHT22;18306;40.960;14.836;2022-07-17T02:05:45;20.90;99.90
31725;DHT22;18306;40.960;14.836;2022-07-17T02:08:12;20.80;99.90
31725;DHT22;18306;40.960;14.836;2022-07-17T02:10:40;20.80;99.90
31725;DHT22;18306;40.960;14.836;2022-07-17T02:13:07;20.80;99.90
31725;DHT22;18306;40.960;14.836;2022-07-17T02:15:34;20.70;99.90
31725;DHT22;18306;40.960;14.836;2022-07-17T02:18:02;20.80;99.90
31725;DHT22;18306;40.960;14.836;2022-07-17T02:20:29;20.70;99.90
31725;DHT22;18306;40.960;14.836;2022-07-17T02:22:56;20.70;99.90
31725;DHT22;18306;40.960;14.836;2022-07-17T02:25:24;20.80;99.90
31725;DHT22;18306;40.960;14.836;2022-07-17T02:27:56;20.80;99.90
31725;DHT22;18306;40.960;14.836;2022-07-17T02:30:26;20.90;99.90
31725;DHT22;18306;40.960;14.836;2022-07-17T02:32:53;20.90;99.90
31725;DHT22;18306;40.960;14.836;2022-07-17T02:35:23;20.70;99.90
31725;DHT22;18306;40.960;14.836;2022-07-17T02:37:50;20.70;99.90
31725;DHT22;18306;40.960;14.836;2022-07-17T02:40:17;20.70;99.90
31725;DHT22;18306;40.960;14.836;2022-07-17T02:42:44;20.60;99.90
31725;DHT22;18306;40.960;14.836;2022-07-17T02:45:12;20.60;99.90
31725;DHT22;18306;40.960;14.836;2022-07-17T02:47:39;20.60;99.90
31725;DHT22;18306;40.960;14.836;2022-07-17T02:50:08;20.60;99.90
31725;DHT22;18306;40.960;14.836;2022-07-17T02:52:41;20.60;99.90
31725;DHT22;18306;40.960;14.836;2022-07-17T02:55:26;20.60;99.90
31725;DHT22;18306;40.960;14.836;2022-07-17T02:58:05;20.60;99.90
31725;DHT22;18306;40.960;14.836;2022-07-17T03:00:39;20.70;99.90
31725;DHT22;18306;40.960;14.836;2022-07-17T03:03:17;20.60;99.90
31725;DHT22;18306;40.960;14.836;2022-07-17T03:05:54;20.60;99.90
31725;DHT22;18306;40.960;14.836;2022-07-17T03:08:25;20.50;99.90
31725;DHT22;18306;40.960;14.836;2022-07-17T03:10:52;20.30;99.90
31725;DHT22;18306;40.960;14.836;2022-07-17T03:13:19;20.40;99.90
31725;DHT22;18306;40.960;14.836;2022-07-17T03:15:47;20.40;99.90
31725;DHT22;18306;40.960;14.836;2022-07-17T03:18:15;20.40;99.90
31725;DHT22;18306;40.960;14.836;2022-07-17T03:20:42;20.40;99.90
31725;DHT22;18306;40.960;14.836;2022-07-17T03:23:09;20.40;99.90
31725;DHT22;18306;40.960;14.836;2022-07-17T03:25:37;20.40;99.90
31725;DHT22;18306;40.960;14.836;2022-07-17T03:28:04;20.40;99.90
31725;DHT22;18306;40.960;14.836;2022-07-17T03:30:32;20.30;99.90
31725;DHT22;18306;40.960;14.836;2022-07-17T03:32:59;20.20;99.90
31725;DHT22;18306;40.960;14.836;2022-07-17T03:35:26;20.30;99.90
31725;DHT22;18306;40.960;14.836;2022-07-17T03:37:53;20.40;99.90
31725;DHT22;18306;40.960;14.836;2022-07-17T03:40:20;20.30;99.90
31725;DHT22;18306;40.960;14.836;2022-07-17T03:42:48;20.30;99.90
31725;DHT22;18306;40.960;14.836;2022-07-17T03:45:17;20.20;99.90
31725;DHT22;18306;40.960;14.836;2022-07-17T03:47:44;20.20;99.90
31725;DHT22;18306;40.960;14.836;2022-07-17T03:50:11;20.30;99.90
31725;DHT22;18306;40.960;14.836;2022-07-17T03:52:39;20.20;99.90
31725;DHT22;18306;40.960;14.836;2022-07-17T03:55:06;20.10;99.90
31725;DHT22;18306;40.960;14.836;2022-07-17T03:57:33;20.00;99.90
31725;DHT22;18306;40.960;14.836;2022-07-17T04:00:01;20.00;99.90
31725;DHT22;18306;40.960;14.836;2022-07-17T04:02:38;20.10;99.90
31725;DHT22;18306;40.960;14.836;2022-07-17T04:05:06;20.20;99.90
31725;DHT22;18306;40.960;14.836;2022-07-17T04:07:40;20.20;99.90
31725;DHT22;18306;40.960;14.836;2022-07-17T04:10:09;20.20;99.90
31725;DHT22;18306;40.960;14.836;2022-07-17T04:12:37;20.30;99.90
31725;DHT22;18306;40.960;14.836;2022-07-17T04:15:05;20.40;99.90
31725;DHT22;18306;40.960;14.836;2022-07-17T04:17:33;20.40;99.90
31725;DHT22;18306;40.960;14.836;2022-07-17T04:20:02;20.50;99.90
31725;DHT22;18306;40.960;14.836;2022-07-17T04:22:30;20.50;99.90
31725;DHT22;18306;40.960;14.836;2022-07-17T04:24:57;20.40;99.90
31725;DHT22;18306;40.960;14.836;2022-07-17T04:27:24;20.40;99.90
31725;DHT22;18306;40.960;14.836;2022-07-17T04:29:51;20.50;99.90
31725;DHT22;18306;40.960;14.836;2022-07-17T04:32:19;20.50;99.90
31725;DHT22;18306;40.960;14.836;2022-07-17T04:34:46;20.60;99.90
31725;DHT22;18306;40.960;14.836;2022-07-17T04:37:13;20.60;99.90
31725;DHT22;18306;40.960;14.836;2022-07-17T04:39:41;20.60;99.90
31725;DHT22;18306;40.960;14.836;2022-07-17T04:42:08;20.60;99.90
31725;DHT22;18306;40.960;14.836;2022-07-17T04:44:35;20.60;99.90
31725;DHT22;18306;40.960;14.836;2022-07-17T04:47:03;20.60;99.90
31725;DHT22;18306;40.960;14.836;2022-07-17T04:49:30;20.60;99.90
31725;DHT22;18306;40.960;14.836;2022-07-17T04:51:58;20.70;99.90
31725;DHT22;18306;40.960;14.836;2022-07-17T04:54:25;20.70;99.90
31725;DHT22;18306;40.960;14.836;2022-07-17T04:56:52;20.80;99.90
31725;DHT22;18306;40.960;14.836;2022-07-17T04:59:22;20.80;99.90
31725;DHT22;18306;40.960;14.836;2022-07-17T05:01:50;20.80;99.90
31725;DHT22;18306;40.960;14.836;2022-07-17T05:04:17;20.80;99.90
31725;DHT22;18306;40.960;14.836;2022-07-17T05:06:44;21.00;99.90
31725;DHT22;18306;40.960;14.836;2022-07-17T05:09:12;21.00;99.90
31725;DHT22;18306;40.960;14.836;2022-07-17T05:11:39;21.00;99.90
31725;DHT22;18306;40.960;14.836;2022-07-17T05:14:07;21.20;99.90
31725;DHT22;18306;40.960;14.836;2022-07-17T05:16:37;21.20;99.90
31725;DHT22;18306;40.960;14.836;2022-07-17T05:19:04;21.30;99.90
31725;DHT22;18306;40.960;14.836;2022-07-17T05:21:32;21.30;99.90
31725;DHT22;18306;40.960;14.836;2022-07-17T05:23:59;21.40;99.90
31725;DHT22;18306;40.960;14.836;2022-07-17T05:26:27;21.50;99.90
31725;DHT22;18306;40.960;14.836;2022-07-17T05:28:55;21.80;99.90
31725;DHT22;18306;40.960;14.836;2022-07-17T05:31:22;22.00;99.90
31725;DHT22;18306;40.960;14.836;2022-07-17T05:34:07;22.10;99.90
31725;DHT22;18306;40.960;14.836;2022-07-17T05:36:38;22.40;99.90
31725;DHT22;18306;40.960;14.836;2022-07-17T05:39:05;22.60;99.90
31725;DHT22;18306;40.960;14.836;2022-07-17T05:41:34;23.10;99.90
31725;DHT22;18306;40.960;14.836;2022-07-17T05:44:02;23.30;99.90
31725;DHT22;18306;40.960;14.836;2022-07-17T05:46:29;23.60;99.90
31725;DHT22;18306;40.960;14.836;2022-07-17T05:48:56;24.00;99.90
31725;DHT22;18306;40.960;14.836;2022-07-17T05:51:25;24.20;99.90
31725;DHT22;18306;40.960;14.836;2022-07-17T05:53:55;24.50;99.90
31725;DHT22;18306;40.960;14.836;2022-07-17T05:56:22;25.20;99.90
31725;DHT22;18306;40.960;14.836;2022-07-17T05:58:50;26.20;99.90
31725;DHT22;18306;40.960;14.836;2022-07-17T06:01:18;27.80;99.90
31725;DHT22;18306;40.960;14.836;2022-07-17T06:03:45;28.50;99.90
31725;DHT22;18306;40.960;14.836;2022-07-17T06:06:13;28.90;99.90
31725;DHT22;18306;40.960;14.836;2022-07-17T06:08:40;29.40;99.90
31725;DHT22;18306;40.960;14.836;2022-07-17T06:11:12;29.10;99.90
31725;DHT22;18306;40.960;14.836;2022-07-17T06:13:40;29.20;99.90
31725;DHT22;18306;40.960;14.836;2022-07-17T06:16:07;29.20;99.90
31725;DHT22;18306;40.960;14.836;2022-07-17T06:18:35;29.00;99.90
31725;DHT22;18306;40.960;14.836;2022-07-17T06:21:03;29.60;99.90
31725;DHT22;18306;40.960;14.836;2022-07-17T06:23:33;30.10;99.00
31725;DHT22;18306;40.960;14.836;2022-07-17T06:26:02;30.60;99.20
31725;DHT22;18306;40.960;14.836;2022-07-17T06:28:30;30.70;99.20
31725;DHT22;18306;40.960;14.836;2022-07-17T06:30:58;30.40;99.90
31725;DHT22;18306;40.960;14.836;2022-07-17T06:33:25;30.80;98.10
31725;DHT22;18306;40.960;14.836;2022-07-17T06:35:52;31.40;97.80
31725;DHT22;18306;40.960;14.836;2022-07-17T06:38:19;31.90;97.50
31725;DHT22;18306;40.960;14.836;2022-07-17T06:40:46;30.10;99.70
31725;DHT22;18306;40.960;14.836;2022-07-17T06:43:14;28.90;99.90
31725;DHT22;18306;40.960;14.836;2022-07-17T06:45:43;28.60;99.90
31725;DHT22;18306;40.960;14.836;2022-07-17T06:48:10;28.50;99.90
31725;DHT22;18306;40.960;14.836;2022-07-17T06:50:38;28.50;99.90
31725;DHT22;18306;40.960;14.836;2022-07-17T06:53:05;28.30;99.90
31725;DHT22;18306;40.960;14.836;2022-07-17T06:55:32;28.20;99.90
31725;DHT22;18306;40.960;14.836;2022-07-17T06:58:02;28.10;99.90
31725;DHT22;18306;40.960;14.836;2022-07-17T07:00:30;28.10;99.90
31725;DHT22;18306;40.960;14.836;2022-07-17T07:02:57;28.10;99.90
31725;DHT22;18306;40.960;14.836;2022-07-17T07:05:24;28.20;99.90
31725;DHT22;18306;40.960;14.836;2022-07-17T07:07:51;28.20;99.90
31725;DHT22;18306;40.960;14.836;2022-07-17T07:10:18;28.20;99.90
31725;DHT22;18306;40.960;14.836;2022-07-17T07:12:47;28.20;99.90
31725;DHT22;18306;40.960;14.836;2022-07-17T07:15:20;28.20;99.90
31725;DHT22;18306;40.960;14.836;2022-07-17T07:17:51;28.20;99.90
31725;DHT22;18306;40.960;14.836;2022-07-17T07:27:56;28.10;99.90
31725;DHT22;18306;40.960;14.836;2022-07-17T07:30:23;28.00;99.90
31725;DHT22;18306;40.960;14.836;2022-07-17T07:32:50;27.80;99.90
31725;DHT22;18306;40.960;14.836;2022-07-17T07:35:17;27.90;99.90
31725;DHT22;18306;40.960;14.836;2022-07-17T07:37:47;28.20;99.90
31725;DHT22;18306;40.960;14.836;2022-07-17T07:40:14;28.30;99.90
31725;DHT22;18306;40.960;14.836;2022-07-17T07:42:41;28.60;99.90
31725;DHT22;18306;40.960;14.836;2022-07-17T07:45:09;28.90;99.90
31725;DHT22;18306;40.960;14.836;2022-07-17T07:47:45;29.10;99.90
31725;DHT22;18306;40.960;14.836;2022-07-17T07:50:13;29.20;99.90
31725;DHT22;18306;40.960;14.836;2022-07-17T07:52:41;29.10;99.90
31725;DHT22;18306;40.960;14.836;2022-07-17T07:55:12;29.30;99.90
31725;DHT22;18306;40.960;14.836;2022-07-17T07:57:40;29.40;99.90
31725;DHT22;18306;40.960;14.836;2022-07-17T08:00:09;29.80;99.90
31725;DHT22;18306;40.960;14.836;2022-07-17T08:02:39;30.30;99.90
31725;DHT22;18306;40.960;14.836;2022-07-17T08:05:07;30.60;99.90
31725;DHT22;18306;40.960;14.836;2022-07-17T08:07:35;32.20;99.90
31725;DHT22;18306;40.960;14.836;2022-07-17T08:10:04;32.90;99.90
31725;DHT22;18306;40.960;14.836;2022-07-17T08:12:32;33.10;99.30
31725;DHT22;18306;40.960;14.836;2022-07-17T08:15:02;32.60;99.70
31725;DHT22;18306;40.960;14.836;2022-07-17T08:17:35;32.20;99.90
31725;DHT22;18306;40.960;14.836;2022-07-17T08:20:03;32.10;99.90
31725;DHT22;18306;40.960;14.836;2022-07-17T08:22:31;32.00;99.90
31725;DHT22;18306;40.960;14.836;2022-07-17T08:24:58;31.60;99.90
31725;DHT22;18306;40.960;14.836;2022-07-17T08:27:26;31.60;99.90
31725;DHT22;18306;40.960;14.836;2022-07-17T08:29:55;31.60;99.90
31725;DHT22;18306;40.960;14.836;2022-07-17T08:32:23;31.60;99.90
31725;DHT22;18306;40.960;14.836;2022-07-17T08:34:50;31.30;99.90
31725;DHT22;18306;40.960;14.836;2022-07-17T08:37:19;31.40;99.90
31725;DHT22;18306;40.960;14.836;2022-07-17T08:39:47;31.30;99.90
31725;DHT22;18306;40.960;14.836;2022-07-17T08:42:15;31.30;99.90
31725;DHT22;18306;40.960;14.836;2022-07-17T08:44:43;31.00;99.90
31725;DHT22;18306;40.960;14.836;2022-07-17T08:47:14;31.20;99.90
31725;DHT22;18306;40.960;14.836;2022-07-17T08:49:46;31.20;99.90
31725;DHT22;18306;40.960;14.836;2022-07-17T08:52:18;31.10;99.90
31725;DHT22;18306;40.960;14.836;2022-07-17T08:54:46;31.10;99.60
31725;DHT22;18306;40.960;14.836;2022-07-17T08:57:14;31.20;99.80
31725;DHT22;18306;40.960;14.836;2022-07-17T08:59:41;31.10;99.50
31725;DHT22;18306;40.960;14.836;2022-07-17T09:02:11;31.20;99.30
31725;DHT22;18306;40.960;14.836;2022-07-17T09:04:40;31.30;99.70
31725;DHT22;18306;40.960;14.836;2022-07-17T09:07:08;31.40;99.00
31725;DHT22;18306;40.960;14.836;2022-07-17T09:09:36;31.40;99.00
31725;DHT22;18306;40.960;14.836;2022-07-17T09:12:04;31.50;98.10
31725;DHT22;18306;40.960;14.836;2022-07-17T09:14:39;31.50;98.00
31725;DHT22;18306;40.960;14.836;2022-07-17T09:17:14;31.50;98.60
31725;DHT22;18306;40.960;14.836;2022-07-17T09:19:45;31.50;98.60
31725;DHT22;18306;40.960;14.836;2022-07-17T09:22:21;31.50;99.20
31725;DHT22;18306;40.960;14.836;2022-07-17T09:24:54;31.60;99.50
31725;DHT22;18306;40.960;14.836;2022-07-17T09:29:57;31.70;98.40
31725;DHT22;18306;40.960;14.836;2022-07-17T09:32:28;31.70;98.50
31725;DHT22;18306;40.960;14.836;2022-07-17T09:35:00;31.70;98.90
31725;DHT22;18306;40.960;14.836;2022-07-17T09:37:30;31.70;98.20
31725;DHT22;18306;40.960;14.836;2022-07-17T09:40:00;31.70;98.40
31725;DHT22;18306;40.960;14.836;2022-07-17T09:42:31;31.80;98.00
31725;DHT22;18306;40.960;14.836;2022-07-17T09:47:36;31.60;98.10
31725;DHT22;18306;40.960;14.836;2022-07-17T09:50:06;31.80;97.90
31725;DHT22;18306;40.960;14.836;2022-07-17T09:52:37;31.90;97.50
31725;DHT22;18306;40.960;14.836;2022-07-17T09:55:05;31.70;97.80
31725;DHT22;18306;40.960;14.836;2022-07-17T09:57:40;31.70;97.90
31725;DHT22;18306;40.960;14.836;2022-07-17T10:00:09;31.90;97.90
31725;DHT22;18306;40.960;14.836;2022-07-17T10:02:42;32.20;96.60
31725;DHT22;18306;40.960;14.836;2022-07-17T10:05:12;32.10;96.80
31725;DHT22;18306;40.960;14.836;2022-07-17T10:07:39;31.90;96.30
31725;DHT22;18306;40.960;14.836;2022-07-17T10:10:11;31.20;98.60
31725;DHT22;18306;40.960;14.836;2022-07-17T10:12:43;31.70;97.60
31725;DHT22;18306;40.960;14.836;2022-07-17T10:15:16;32.00;98.20
31725;DHT22;18306;40.960;14.836;2022-07-17T10:17:45;32.10;96.70
31725;DHT22;18306;40.960;14.836;2022-07-17T10:20:24;32.10;96.70
31725;DHT22;18306;40.960;14.836;2022-07-17T10:22:54;32.00;97.10
31725;DHT22;18306;40.960;14.836;2022-07-17T10:25:27;32.10;96.70
31725;DHT22;18306;40.960;14.836;2022-07-17T10:27:58;32.20;96.50
31725;DHT22;18306;40.960;14.836;2022-07-17T10:30:29;32.30;95.90
31725;DHT22;18306;40.960;14.836;2022-07-17T10:33:04;32.50;95.60
31725;DHT22;18306;40.960;14.836;2022-07-17T10:35:48;32.60;96.20
31725;DHT22;18306;40.960;14.836;2022-07-17T10:38:18;32.20;95.70
31725;DHT22;18306;40.960;14.836;2022-07-17T10:40:47;31.90;96.60
31725;DHT22;18306;40.960;14.836;2022-07-17T10:43:14;32.20;95.90
31725;DHT22;18306;40.960;14.836;2022-07-17T10:45:44;32.50;94.10
31725;DHT22;18306;40.960;14.836;2022-07-17T10:48:19;32.60;94.90
31725;DHT22;18306;40.960;14.836;2022-07-17T10:50:54;32.50;95.30
31725;DHT22;18306;40.960;14.836;2022-07-17T10:53:28;30.80;97.20
31725;DHT22;18306;40.960;14.836;2022-07-17T10:55:58;30.10;99.40
31725;DHT22;18306;40.960;14.836;2022-07-17T10:58:38;31.30;95.90
31725;DHT22;18306;40.960;14.836;2022-07-17T11:01:09;31.90;95.90
31725;DHT22;18306;40.960;14.836;2022-07-17T11:03:55;32.40;92.50
31725;DHT22;18306;40.960;14.836;2022-07-17T11:06:35;32.60;91.50
31725;DHT22;18306;40.960;14.836;2022-07-17T11:09:06;32.80;91.50
31725;DHT22;18306;40.960;14.836;2022-07-17T11:14:21;32.70;90.70
31725;DHT22;18306;40.960;14.836;2022-07-17T11:16:51;32.70;90.30
31725;DHT22;18306;40.960;14.836;2022-07-17T11:19:37;32.80;87.80
31725;DHT22;18306;40.960;14.836;2022-07-17T11:22:15;32.30;92.10
31725;DHT22;18306;40.960;14.836;2022-07-17T11:24:46;32.70;87.90
31725;DHT22;18306;40.960;14.836;2022-07-17T11:27:22;32.70;91.00
31725;DHT22;18306;40.960;14.836;2022-07-17T11:29:51;31.90;92.40
31725;DHT22;18306;40.960;14.836;2022-07-17T11:32:18;30.60;94.00
31725;DHT22;18306;40.960;14.836;2022-07-17T11:34:46;30.80;92.00
31725;DHT22;18306;40.960;14.836;2022-07-17T11:37:13;30.70;93.60
31725;DHT22;18306;40.960;14.836;2022-07-17T11:39:46;30.70;94.00
31725;DHT22;18306;40.960;14.836;2022-07-17T11:42:18;31.60;91.20
31725;DHT22;18306;40.960;14.836;2022-07-17T11:44:46;32.40;88.80
31725;DHT22;18306;40.960;14.836;2022-07-17T11:47:20;32.80;85.60
31725;DHT22;18306;40.960;14.836;2022-07-17T11:49:48;32.90;78.80
31725;DHT22;18306;40.960;14.836;2022-07-17T11:52:16;33.20;83.80
31725;DHT22;18306;40.960;14.836;2022-07-17T11:54:55;33.20;85.70
31725;DHT22;18306;40.960;14.836;2022-07-17T11:57:27;33.20;88.00
31725;DHT22;18306;40.960;14.836;2022-07-17T12:00:06;33.40;87.80
31725;DHT22;18306;40.960;14.836;2022-07-17T12:02:38;33.50;87.20
31725;DHT22;18306;40.960;14.836;2022-07-17T12:05:05;33.70;86.70
31725;DHT22;18306;40.960;14.836;2022-07-17T12:07:48;33.90;84.80
31725;DHT22;18306;40.960;14.836;2022-07-17T12:10:19;33.90;83.80
31725;DHT22;18306;40.960;14.836;2022-07-17T12:15:44;32.30;89.80
31725;DHT22;18306;40.960;14.836;2022-07-17T12:18:22;31.40;91.30
31725;DHT22;18306;40.960;14.836;2022-07-17T12:21:03;30.90;91.10
31725;DHT22;18306;40.960;14.836;2022-07-17T12:23:33;30.50;92.50
31725;DHT22;18306;40.960;14.836;2022-07-17T12:26:13;30.30;92.50
31725;DHT22;18306;40.960;14.836;2022-07-17T12:28:47;30.30;92.60
31725;DHT22;18306;40.960;14.836;2022-07-17T12:31:16;30.90;92.30
31725;DHT22;18306;40.960;14.836;2022-07-17T12:33:44;32.00;89.50
31725;DHT22;18306;40.960;14.836;2022-07-17T12:36:11;32.70;89.80
31725;DHT22;18306;40.960;14.836;2022-07-17T12:38:44;33.20;85.10
31725;DHT22;18306;40.960;14.836;2022-07-17T12:41:16;32.80;88.30
31725;DHT22;18306;40.960;14.836;2022-07-17T12:43:44;32.90;88.00
31725;DHT22;18306;40.960;14.836;2022-07-17T12:46:11;33.40;84.60
31725;DHT22;18306;40.960;14.836;2022-07-17T12:48:39;33.20;87.80
31725;DHT22;18306;40.960;14.836;2022-07-17T12:51:15;32.10;89.40
31725;DHT22;18306;40.960;14.836;2022-07-17T12:53:51;31.70;90.00
31725;DHT22;18306;40.960;14.836;2022-07-17T12:56:19;32.00;87.20
31725;DHT22;18306;40.960;14.836;2022-07-17T12:58:46;32.40;88.10
31725;DHT22;18306;40.960;14.836;2022-07-17T13:01:13;31.70;90.00
31725;DHT22;18306;40.960;14.836;2022-07-17T13:03:43;31.80;89.60
31725;DHT22;18306;40.960;14.836;2022-07-17T13:06:12;32.40;86.60
31725;DHT22;18306;40.960;14.836;2022-07-17T13:08:40;33.30;81.70
31725;DHT22;18306;40.960;14.836;2022-07-17T13:11:09;33.80;80.00
31725;DHT22;18306;40.960;14.836;2022-07-17T13:13:36;34.00;76.00
31725;DHT22;18306;40.960;14.836;2022-07-17T13:16:04;32.90;84.60
31725;DHT22;18306;40.960;14.836;2022-07-17T13:18:34;32.90;83.90
31725;DHT22;18306;40.960;14.836;2022-07-17T13:21:07;33.20;81.00
31725;DHT22;18306;40.960;14.836;2022-07-17T13:23:47;33.70;80.50
31725;DHT22;18306;40.960;14.836;2022-07-17T13:26:24;33.70;78.70
31725;DHT22;18306;40.960;14.836;2022-07-17T13:28:58;34.10;78.20
31725;DHT22;18306;40.960;14.836;2022-07-17T13:31:27;34.40;75.80
31725;DHT22;18306;40.960;14.836;2022-07-17T13:33:54;34.40;75.60
31725;DHT22;18306;40.960;14.836;2022-07-17T13:36:22;34.50;76.60
31725;DHT22;18306;40.960;14.836;2022-07-17T13:38:50;34.70;75.20
31725;DHT22;18306;40.960;14.836;2022-07-17T13:41:17;34.90;78.40
31725;DHT22;18306;40.960;14.836;2022-07-17T13:43:45;34.90;76.10
31725;DHT22;18306;40.960;14.836;2022-07-17T13:46:14;34.70;78.50
31725;DHT22;18306;40.960;14.836;2022-07-17T13:48:42;34.90;80.80
31725;DHT22;18306;40.960;14.836;2022-07-17T13:51:09;34.70;77.80
31725;DHT22;18306;40.960;14.836;2022-07-17T13:53:38;34.80;76.80
31725;DHT22;18306;40.960;14.836;2022-07-17T13:56:06;34.50;75.80
31725;DHT22;18306;40.960;14.836;2022-07-17T13:58:33;34.50;77.40
31725;DHT22;18306;40.960;14.836;2022-07-17T14:01:02;33.10;82.70
31725;DHT22;18306;40.960;14.836;2022-07-17T14:03:30;31.50;90.40
31725;DHT22;18306;40.960;14.836;2022-07-17T14:06:10;31.10;92.60
31725;DHT22;18306;40.960;14.836;2022-07-17T14:08:46;30.80;93.60
31725;DHT22;18306;40.960;14.836;2022-07-17T14:11:14;31.10;95.50
31725;DHT22;18306;40.960;14.836;2022-07-17T14:13:41;31.00;94.10
31725;DHT22;18306;40.960;14.836;2022-07-17T14:16:10;30.60;95.00
31725;DHT22;18306;40.960;14.836;2022-07-17T14:18:38;30.30;95.00
31725;DHT22;18306;40.960;14.836;2022-07-17T14:21:30;30.30;94.80
31725;DHT22;18306;40.960;14.836;2022-07-17T14:24:03;30.30;94.60
31725;DHT22;18306;40.960;14.836;2022-07-17T14:26:32;30.30;94.80
31725;DHT22;18306;40.960;14.836;2022-07-17T14:29:11;30.10;95.00
31725;DHT22;18306;40.960;14.836;2022-07-17T14:31:39;29.80;95.50
31725;DHT22;18306;40.960;14.836;2022-07-17T14:34:07;29.80;96.20
31725;DHT22;18306;40.960;14.836;2022-07-17T14:36:34;30.20;95.70
31725;DHT22;18306;40.960;14.836;2022-07-17T14:39:01;30.20;95.50
31725;DHT22;18306;40.960;14.836;2022-07-17T14:41:29;30.10;96.10
31725;DHT22;18306;40.960;14.836;2022-07-17T14:43:56;30.40;95.30
31725;DHT22;18306;40.960;14.836;2022-07-17T14:46:24;30.10;95.20
31725;DHT22;18306;40.960;14.836;2022-07-17T14:48:51;29.80;95.80
31725;DHT22;18306;40.960;14.836;2022-07-17T14:51:18;29.80;96.70
31725;DHT22;18306;40.960;14.836;2022-07-17T14:53:45;29.60;97.00
31725;DHT22;18306;40.960;14.836;2022-07-17T14:56:13;29.60;97.00
31725;DHT22;18306;40.960;14.836;2022-07-17T14:58:40;29.40;96.30
31725;DHT22;18306;40.960;14.836;2022-07-17T15:01:10;29.00;96.20
31725;DHT22;18306;40.960;14.836;2022-07-17T15:03:37;28.80;96.70
31725;DHT22;18306;40.960;14.836;2022-07-17T15:06:05;28.60;96.30
31725;DHT22;18306;40.960;14.836;2022-07-17T15:08:33;28.60;96.40
31725;DHT22;18306;40.960;14.836;2022-07-17T15:11:03;28.50;96.20
31725;DHT22;18306;40.960;14.836;2022-07-17T15:13:30;28.50;95.60
31725;DHT22;18306;40.960;14.836;2022-07-17T15:15:58;28.20;95.90
31725;DHT22;18306;40.960;14.836;2022-07-17T15:18:25;28.00;96.50
31725;DHT22;18306;40.960;14.836;2022-07-17T15:20:54;27.70;97.00
31725;DHT22;18306;40.960;14.836;2022-07-17T15:23:21;27.50;97.50
31725;DHT22;18306;40.960;14.836;2022-07-17T15:25:50;27.50;97.90
31725;DHT22;18306;40.960;14.836;2022-07-17T15:28:17;27.60;97.80
31725;DHT22;18306;40.960;14.836;2022-07-17T15:30:44;27.60;97.70
31725;DHT22;18306;40.960;14.836;2022-07-17T15:33:11;27.50;97.70
31725;DHT22;18306;40.960;14.836;2022-07-17T15:35:38;27.50;97.70
31725;DHT22;18306;40.960;14.836;2022-07-17T15:38:08;27.40;97.70
31725;DHT22;18306;40.960;14.836;2022-07-17T15:40:35;27.40;98.10
31725;DHT22;18306;40.960;14.836;2022-07-17T15:43:04;27.30;98.30
31725;DHT22;18306;40.960;14.836;2022-07-17T15:45:32;27.20;98.40
31725;DHT22;18306;40.960;14.836;2022-07-17T15:47:59;27.40;98.50